createdAt,value
2022-11-04T00:01:49.252Z,7.30
2022-11-04T00:05:51.073Z,7.63
2022-11-04T00:09:52.893Z,7.17
2022-11-04T00:13:54.709Z,8.30
2022-11-04T00:17:56.530Z,7.80
2022-11-04T00:22:17.095Z,8.67
2022-11-04T00:26:37.454Z,8.50
2022-11-04T00:30:39.260Z,7.80
2022-11-04T00:34:41.041Z,7.90
2022-11-04T00:38:42.908Z,8.00
2022-11-04T00:42:45.627Z,7.57
2022-11-04T00:46:47.425Z,8.20
2022-11-04T00:50:49.193Z,8.43
2022-11-04T00:54:50.952Z,8.03
2022-11-04T00:58:52.798Z,9.03
2022-11-04T01:02:55.470Z,8.60
2022-11-04T01:06:57.320Z,9.87
2022-11-04T01:11:05.593Z,8.80
2022-11-04T01:15:07.916Z,10.20
2022-11-04T01:19:10.665Z,11.47
2022-11-04T01:23:12.444Z,11.00
2022-11-04T01:27:14.335Z,12.43
2022-11-04T01:31:18.786Z,11.60
2022-11-04T01:35:20.692Z,12.67
2022-11-04T01:39:22.470Z,12.73
2022-11-04T01:43:31.616Z,12.60
2022-11-04T01:47:41.954Z,13.87
2022-11-04T01:51:44.154Z,14.03
2022-11-04T01:55:51.635Z,14.50
2022-11-04T01:59:53.435Z,14.57
2022-11-04T02:04:18.460Z,15.73
2022-11-04T02:08:20.249Z,15.63
2022-11-04T02:12:40.397Z,15.70
2022-11-04T02:16:44.393Z,15.57
2022-11-04T02:20:52.347Z,16.43
2022-11-04T02:25:06.069Z,16.77
2022-11-04T02:29:38.475Z,16.07
2022-11-04T02:33:53.622Z,15.80
2022-11-04T02:38:22.416Z,16.20
2022-11-04T02:42:51.970Z,17.83
2022-11-04T02:47:24.203Z,17.63
2022-11-04T02:51:40.206Z,18.60
2022-11-04T02:55:46.040Z,17.00
2022-11-04T03:00:08.585Z,17.97
2022-11-04T03:04:15.880Z,17.80
2022-11-04T03:08:52.193Z,17.13
2022-11-04T03:13:02.764Z,16.90
2022-11-04T03:17:08.268Z,18.47
2022-11-04T03:21:11.457Z,18.10
2022-11-04T03:25:13.207Z,16.60
2022-11-04T03:29:20.919Z,16.57
2022-11-04T03:33:48.271Z,16.87
2022-11-04T03:37:50.275Z,16.20
2022-11-04T03:41:57.206Z,14.40
2022-11-04T03:45:59.027Z,15.30
2022-11-04T03:50:22.509Z,15.60
2022-11-04T03:54:24.284Z,17.03
2022-11-04T03:59:04.505Z,16.63
2022-11-04T04:03:18.224Z,15.87
2022-11-04T04:07:50.120Z,15.50
2022-11-04T04:12:01.196Z,16.47
2022-11-04T04:16:11.131Z,17.40
2022-11-04T04:20:21.585Z,18.67
2022-11-04T04:24:44.212Z,17.80
2022-11-04T04:28:46.040Z,18.27
2022-11-04T04:32:58.128Z,18.77
2022-11-04T04:37:07.123Z,17.37
2022-11-04T04:41:45.990Z,18.50
2022-11-04T04:45:56.614Z,19.13
2022-11-04T04:49:59.936Z,18.83
2022-11-04T04:54:01.807Z,18.50
2022-11-04T04:58:03.619Z,18.47
2022-11-04T05:02:05.523Z,18.80
2022-11-04T05:06:07.790Z,19.07
2022-11-04T05:10:12.040Z,19.73
2022-11-04T05:14:14.045Z,19.93
2022-11-04T05:18:15.930Z,21.80
2022-11-04T05:22:17.792Z,20.77
2022-11-04T05:26:19.704Z,20.07
2022-11-04T05:30:21.564Z,20.63
2022-11-04T05:34:23.446Z,23.30
2022-11-04T05:38:25.250Z,23.13
2022-11-04T05:42:27.127Z,23.17
2022-11-04T05:46:29.399Z,23.90
2022-11-04T05:50:32.813Z,22.63
2022-11-04T05:54:37.129Z,22.27
2022-11-04T05:58:45.936Z,22.30
2022-11-04T06:03:45.892Z,21.07
2022-11-04T06:07:47.959Z,22.43
2022-11-04T06:11:49.908Z,23.03
2022-11-04T06:16:27.046Z,22.97
2022-11-04T06:34:23.781Z,19.33
2022-11-04T06:38:11.912Z,16.80
2022-11-04T06:47:06.879Z,12.67
2022-11-04T06:51:12.017Z,12.57
2022-11-04T07:06:16.658Z,9.07
2022-11-04T07:10:21.634Z,9.10
2022-11-04T07:14:23.890Z,8.43
2022-11-04T07:18:28.386Z,7.73
2022-11-04T07:22:30.295Z,8.27
2022-11-04T07:26:45.146Z,7.90
2022-11-04T07:30:50.234Z,7.60
2022-11-04T07:40:38.033Z,7.07
2022-11-04T07:44:40.131Z,6.87
2022-11-04T07:48:42.349Z,6.70
2022-11-04T07:52:44.508Z,6.23
2022-11-04T07:57:00.732Z,6.40
2022-11-04T08:01:08.633Z,5.07
2022-11-04T08:05:26.273Z,5.87
2022-11-04T08:09:35.532Z,5.33
2022-11-04T08:13:56.454Z,5.47
2022-11-04T08:18:01.052Z,4.97
2022-11-04T08:22:41.739Z,5.73
2022-11-04T08:26:44.357Z,5.37
2022-11-04T08:31:18.867Z,4.87
2022-11-04T12:39:08.780Z,5.40
2022-11-04T12:44:27.009Z,3.80
2022-11-04T12:49:19.359Z,4.37
2022-11-04T13:00:12.508Z,4.50
2022-11-04T13:10:19.019Z,4.57
2022-11-04T13:54:20.258Z,4.97
2022-11-04T13:58:50.937Z,5.23
2022-11-04T14:03:00.499Z,4.50
2022-11-04T15:07:53.752Z,3.83
2022-11-04T15:17:48.488Z,5.03
2022-11-04T15:22:02.507Z,4.40
2022-11-04T15:26:29.770Z,4.73
2022-11-04T15:31:04.454Z,5.37
2022-11-04T15:35:13.161Z,4.30
2022-11-04T15:39:27.157Z,4.90
2022-11-04T15:43:46.040Z,4.37
2022-11-04T15:48:38.214Z,4.57
2022-11-04T15:52:52.731Z,4.87
2022-11-04T15:56:58.584Z,4.90
2022-11-04T16:13:24.153Z,4.60
2022-11-04T16:17:26.923Z,5.13
2022-11-04T16:21:42.618Z,7.40
2022-11-04T16:25:49.557Z,5.90
2022-11-04T16:30:29.943Z,6.23
2022-11-04T16:40:25.090Z,6.53
2022-11-04T16:45:34.090Z,7.60
2022-11-04T17:21:38.254Z,4.63
2022-11-04T21:07:31.615Z,5.83
2022-11-04T21:12:48.272Z,5.80
2022-11-04T21:27:18.510Z,6.33
2022-11-04T21:32:17.071Z,6.23
2022-11-04T21:36:20.951Z,6.97
2022-11-04T21:40:58.537Z,6.03
2022-11-04T21:51:21.253Z,6.30
2022-11-04T21:54:10.621Z,6.90
2022-11-04T21:58:12.820Z,6.90
2022-11-04T22:02:15.038Z,7.23
2022-11-04T22:06:17.157Z,7.47
2022-11-04T22:10:19.047Z,6.80
2022-11-04T22:14:21.142Z,6.80
2022-11-04T22:18:23.058Z,6.53
2022-11-04T22:22:24.870Z,6.50
2022-11-04T22:26:31.288Z,7.97
2022-11-04T22:30:35.741Z,7.90
2022-11-04T22:34:37.578Z,8.03
2022-11-04T22:38:40.541Z,8.57
2022-11-04T22:42:43.662Z,7.83
2022-11-04T22:46:45.506Z,8.73
2022-11-04T22:50:53.932Z,7.53
2022-11-04T22:54:55.938Z,6.67
2022-11-04T22:58:58.073Z,6.87
2022-11-04T23:03:00.223Z,6.33
2022-11-04T23:07:02.264Z,6.93
2022-11-04T23:11:29.095Z,8.33
2022-11-04T23:15:49.448Z,7.67
2022-11-04T23:19:51.202Z,7.67
2022-11-04T23:24:11.799Z,7.23
2022-11-04T23:28:32.360Z,6.33
2022-11-04T23:32:34.102Z,6.53
2022-11-04T23:37:14.473Z,6.17
2022-11-04T23:41:34.597Z,6.23
2022-11-04T23:45:54.943Z,6.07
2022-11-04T23:50:15.310Z,5.70
2022-11-04T23:54:44.677Z,6.63
2022-11-04T23:59:05.065Z,7.13
